EUR65 DAOB-VABB
Flight info
| Callsign | EUR65 |
|---|---|
| Flight time | N/A |
| Altitude | 38000 |
| Route | VABB EXOLU NOBAT LADOT RASKI VAXIM DORAB ALSAS TONVO SHJ MUTVI ORSAR EGMID DURSI IMDAT ALNIN OBMOR NANPI DESLU SIDAD BSR DISAR LOVEK PUSTO RAPLU MODIK TAN SULAF ABBAS SOFIA DAM KAD KUKLA DESPO REXAL LCA RUBIK TOBAL TOSKA AMONO VAXOS GISOS PERIM VEREK TELRI LAPSO SIT AMAXI OTREX PLH PIDAS DEMAG ALIXA BINKO EVIRA AGARI GZO ASDAX DOBIX SONAK DIDON TUC DAOB |
| Aircraft | A388/J-DGVW/C |
Departure
| Time | N/A |
|---|---|
| Airport | Abdelhafid Boussouf Bou Chekif Airport (DAOB) |
Arrival
| Time | 2026-04-27 03:39 |
|---|---|
| Airport | Chhatrapati Shivaji Maharaj International Airport (VABB) |
| Time | Latitude | Longitude | Altitude | Speed | Heading |
|---|---|---|---|---|---|
| 2026-04-27 03:27 | 19.33687 | 72.72032 | 15791 ft | 240 kts | 100° |
| 2026-04-27 03:28 | 19.33452 | 72.73768 | 14796 ft | 237 kts | 99° |
| 2026-04-27 03:28 | 19.33232 | 72.75484 | 13796 ft | 233 kts | 99° |
| 2026-04-27 03:28 | 19.33025 | 72.77178 | 12799 ft | 231 kts | 99° |
| 2026-04-27 03:28 | 19.32833 | 72.78852 | 11800 ft | 228 kts | 99° |
| 2026-04-27 03:29 | 19.32647 | 72.80510 | 10799 ft | 226 kts | 98° |
| 2026-04-27 03:29 | 19.32435 | 72.82152 | 9799 ft | 225 kts | 99° |
| 2026-04-27 03:29 | 19.32214 | 72.83799 | 8796 ft | 227 kts | 99° |
| 2026-04-27 03:29 | 19.31993 | 72.85465 | 7802 ft | 231 kts | 98° |
| 2026-04-27 03:30 | 19.31743 | 72.87146 | 6807 ft | 232 kts | 97° |
| 2026-04-27 03:30 | 19.31444 | 72.88824 | 5811 ft | 231 kts | 97° |
| 2026-04-27 03:30 | 19.31051 | 72.90462 | 4794 ft | 230 kts | 103° |
| 2026-04-27 03:30 | 19.30288 | 72.91944 | 4299 ft | 240 kts | 117° |
| 2026-04-27 03:31 | 19.29385 | 72.93514 | 4019 ft | 251 kts | 119° |
| 2026-04-27 03:31 | 19.28488 | 72.95085 | 3860 ft | 255 kts | 119° |
| 2026-04-27 03:31 | 19.27567 | 72.96711 | 3690 ft | 260 kts | 119° |
| 2026-04-27 03:31 | 19.26508 | 72.98283 | 3534 ft | 265 kts | 126° |
| 2026-04-27 03:32 | 19.25321 | 72.99825 | 3396 ft | 276 kts | 128° |
| 2026-04-27 03:32 | 19.24095 | 73.01378 | 3141 ft | 271 kts | 129° |
| 2026-04-27 03:32 | 19.22914 | 73.02869 | 2962 ft | 258 kts | 129° |
| 2026-04-27 03:32 | 19.21704 | 73.04268 | 2813 ft | 262 kts | 136° |
| 2026-04-27 03:33 | 19.20076 | 73.05177 | 2691 ft | 270 kts | 158° |
| 2026-04-27 03:33 | 19.18280 | 73.05867 | 2504 ft | 279 kts | 158° |
| 2026-04-27 03:33 | 19.16559 | 73.06807 | 2395 ft | 279 kts | 152° |
| 2026-04-27 03:33 | 19.14879 | 73.07833 | 2330 ft | 278 kts | 150° |
| 2026-04-27 03:34 | 19.13151 | 73.08723 | 2269 ft | 276 kts | 160° |
| 2026-04-27 03:34 | 19.11288 | 73.09057 | 2318 ft | 270 kts | 173° |
| 2026-04-27 03:34 | 19.09434 | 73.09014 | 2258 ft | 266 kts | 189° |
| 2026-04-27 03:34 | 19.07805 | 73.08210 | 2301 ft | 256 kts | 214° |
| 2026-04-27 03:35 | 19.06688 | 73.06790 | 2303 ft | 251 kts | 239° |
| 2026-04-27 03:35 | 19.06273 | 73.05030 | 2290 ft | 246 kts | 265° |
| 2026-04-27 03:35 | 19.06637 | 73.03309 | 2296 ft | 238 kts | 291° |
| 2026-04-27 03:35 | 19.07624 | 73.01950 | 2380 ft | 231 kts | 312° |
| 2026-04-27 03:36 | 19.08691 | 73.00639 | 2291 ft | 242 kts | 306° |
| 2026-04-27 03:36 | 19.09198 | 72.99053 | 2383 ft | 203 kts | 285° |
| 2026-04-27 03:36 | 19.09119 | 72.97637 | 2034 ft | 186 kts | 266° |
| 2026-04-27 03:36 | 19.08948 | 72.96327 | 1739 ft | 175 kts | 265° |
| 2026-04-27 03:37 | 19.08934 | 72.95085 | 1421 ft | 165 kts | 270° |
| 2026-04-27 03:37 | 19.08983 | 72.93902 | 1159 ft | 157 kts | 271° |
| 2026-04-27 03:37 | 19.08988 | 72.92766 | 947 ft | 153 kts | 268° |
| 2026-04-27 03:37 | 19.08971 | 72.91651 | 766 ft | 152 kts | 265° |
| 2026-04-27 03:38 | 19.08961 | 72.90533 | 588 ft | 152 kts | 265° |
| 2026-04-27 03:38 | 19.08947 | 72.89429 | 406 ft | 153 kts | 264° |
| 2026-04-27 03:38 | 19.08922 | 72.88308 | 218 ft | 153 kts | 263° |
| 2026-04-27 03:38 | 19.08901 | 72.87190 | 71 ft | 147 kts | 264° |
| 2026-04-27 03:39 | 19.08886 | 72.86219 | 39 ft | 113 kts | 259° |
| 2026-04-27 03:39 | 19.08859 | 72.85643 | 38 ft | 31 kts | 276° |
| 2026-04-27 03:39 | 19.08861 | 72.85595 | 38 ft | 0 kts | 266° |
| 2026-04-27 03:39 | 19.08860 | 72.85593 | 38 ft | 2 kts | 266° |
| 2026-04-27 03:40 | 19.08861 | 72.85548 | 38 ft | 10 kts | 276° |
| 2026-04-27 03:40 | 19.08893 | 72.85449 | 38 ft | 19 kts | 296° |
| 2026-04-27 03:40 | 19.08950 | 72.85340 | 38 ft | 13 kts | 320° |
| 2026-04-27 03:40 | 19.09021 | 72.85353 | 38 ft | 12 kts | 72° |
| 2026-04-27 03:41 | 19.09029 | 72.85471 | 38 ft | 20 kts | 88° |
| 2026-04-27 03:41 | 19.09033 | 72.85652 | 38 ft | 29 kts | 89° |
| 2026-04-27 03:41 | 19.09027 | 72.85891 | 38 ft | 37 kts | 89° |
| 2026-04-27 03:41 | 19.09032 | 72.86191 | 38 ft | 45 kts | 90° |
| 2026-04-27 03:42 | 19.09165 | 72.86473 | 38 ft | 46 kts | 46° |
| 2026-04-27 03:42 | 19.09383 | 72.86731 | 38 ft | 45 kts | 55° |
| 2026-04-27 03:42 | 19.09394 | 72.86943 | 38 ft | 27 kts | 103° |